Time;durP1;ratioP1;P1;durP2;ratioP2;P2;SDS_P1;SDS_P2;PMS_P1;PMS_P2;Temp;Humidity;BMP_temperature;BMP_pressure;BME280_temperature;BME280_humidity;BME280_pressure;Samples;Min_cycle;Max_cycle;Signal;HPM_P1;HPM_P2
2023/02/07 00:00:53;;;;;;;0.45;0.45;;;;;;;3.56;68.24;104120.25;5052176;28;20431;-83
2023/02/07 00:03:19;;;;;;;0.10;0.10;;;;;;;3.56;68.79;104123.78;5043583;28;20079;-85
2023/02/07 00:05:45;;;;;;;0.15;0.15;;;;;;;3.57;68.49;104124.69;5041415;28;20036;-84
2023/02/07 00:08:13;;;;;;;0.10;0.10;;;;;;;3.56;68.47;104129.03;5043523;28;20033;-84
2023/02/07 00:10:39;;;;;;;0.15;0.15;;;;;;;3.56;68.82;104115.94;5041349;28;20029;-83
2023/02/07 00:13:06;;;;;;;0.20;0.20;;;;;;;3.56;68.76;104121.16;5042791;28;20056;-84
2023/02/07 00:15:32;;;;;;;0.52;0.52;;;;;;;3.57;69.46;104119.44;5042002;28;20029;-83
2023/02/07 00:17:58;;;;;;;0.30;0.30;;;;;;;3.58;68.78;104113.38;5046383;28;20172;-84
2023/02/07 00:20:24;;;;;;;0.10;0.10;;;;;;;3.59;69.10;104114.28;5044925;28;20025;-84
2023/02/07 00:22:51;;;;;;;0.32;0.30;;;;;;;3.56;69.39;104104.50;5047045;28;20056;-84
2023/02/07 00:25:17;;;;;;;0.20;0.20;;;;;;;3.55;69.05;104110.56;5043025;28;20037;-82
2023/02/07 00:27:43;;;;;;;0.10;0.10;;;;;;;3.54;68.75;104116.66;5048432;28;20031;-83
2023/02/07 00:30:09;;;;;;;0.20;0.20;;;;;;;3.52;68.99;104121.75;5046881;28;20496;-85
2023/02/07 00:32:35;;;;;;;0.20;0.20;;;;;;;3.54;68.81;104117.53;5049695;28;20060;-85
2023/02/07 00:35:02;;;;;;;0.20;0.20;;;;;;;3.54;68.21;104114.03;5054813;28;20025;-84
2023/02/07 00:37:28;;;;;;;0.20;0.20;;;;;;;3.50;69.01;104114.63;5047011;28;20033;-84
2023/02/07 00:39:54;;;;;;;0.20;0.20;;;;;;;3.49;68.85;104115.41;5046178;28;20025;-84
2023/02/07 00:42:20;;;;;;;1.23;1.08;;;;;;;3.46;69.23;104103.03;5044555;28;20037;-83
2023/02/07 00:44:46;;;;;;;0.10;0.10;;;;;;;3.44;68.60;104102.06;5045072;28;20033;-84
2023/02/07 00:47:12;;;;;;;0.17;0.17;;;;;;;3.43;69.60;104105.47;5047423;28;20033;-83
2023/02/07 00:49:38;;;;;;;0.28;0.28;;;;;;;3.42;69.54;104100.16;5042728;28;20032;-82
2023/02/07 00:52:05;;;;;;;0.10;0.10;;;;;;;3.40;70.01;104092.16;5052815;28;20032;-85
2023/02/07 00:54:31;;;;;;;0.20;0.20;;;;;;;3.36;70.13;104101.56;5040881;28;20040;-84
2023/02/07 00:56:57;;;;;;;0.20;0.20;;;;;;;3.31;69.63;104109.94;5050867;28;20030;-84
2023/02/07 00:59:23;;;;;;;0.80;0.80;;;;;;;3.23;70.11;104107.75;5049190;28;20025;-82
2023/02/07 01:01:49;;;;;;;0.20;0.20;;;;;;;3.18;69.86;104103.94;5071036;28;20038;-81
2023/02/07 01:04:15;;;;;;;0.20;0.20;;;;;;;3.15;69.84;104108.97;5071357;28;20068;-80
2023/02/07 01:06:41;;;;;;;0.20;0.20;;;;;;;3.14;69.95;104103.63;5060126;28;20033;-83
2023/02/07 01:09:07;;;;;;;0.10;0.10;;;;;;;3.13;70.05;104113.22;5041390;28;20104;-82
2023/02/07 01:11:33;;;;;;;0.10;0.10;;;;;;;3.16;69.75;104113.41;5047093;28;20507;-81
2023/02/07 01:14:00;;;;;;;0.10;0.10;;;;;;;3.16;70.38;104112.50;5045443;28;20029;-83
2023/02/07 01:16:30;;;;;;;0.10;0.10;;;;;;;3.18;70.22;104117.03;5049578;28;20029;-82
2023/02/07 01:18:57;;;;;;;0.20;0.20;;;;;;;3.18;70.34;104122.28;5046040;28;20037;-80
2023/02/07 01:21:26;;;;;;;0.10;0.10;;;;;;;3.19;70.49;104115.31;5038436;28;20060;-83
2023/02/07 01:23:55;;;;;;;0.17;0.17;;;;;;;3.17;70.40;104115.22;5047849;28;20036;-82
2023/02/07 01:26:23;;;;;;;0.30;0.30;;;;;;;3.18;70.32;104119.66;5047373;28;20393;-80
2023/02/07 01:28:49;;;;;;;0.10;0.10;;;;;;;3.18;70.27;104132.75;5060022;28;20029;-83
2023/02/07 01:31:15;;;;;;;0.10;0.10;;;;;;;3.24;70.48;104121.78;5073115;28;20042;-79
2023/02/07 01:33:41;;;;;;;0.20;0.20;;;;;;;3.17;70.17;104120.47;5076750;28;20028;-80
2023/02/07 01:36:11;;;;;;;0.20;0.20;;;;;;;3.18;70.49;104122.28;5065403;28;20116;-84
2023/02/07 01:38:38;;;;;;;3.72;1.38;;;;;;;3.18;70.27;104117.03;5057859;28;20029;-82
2023/02/07 01:41:04;;;;;;;0.10;0.10;;;;;;;3.19;70.12;104124.09;5052096;28;20124;-83
2023/02/07 01:43:31;;;;;;;0.10;0.10;;;;;;;3.19;70.30;104126.72;5058337;28;20059;-83
2023/02/07 01:45:57;;;;;;;0.28;0.28;;;;;;;3.18;70.46;104124.91;5058433;28;20029;-84
2023/02/07 01:48:31;;;;;;;0.10;0.10;;;;;;;3.17;70.14;104120.47;5060292;28;20064;-84
2023/02/07 01:51:02;;;;;;;0.10;0.10;;;;;;;3.15;70.22;104121.19;5057144;28;20021;-83
2023/02/07 01:53:30;;;;;;;0.10;0.10;;;;;;;3.11;70.26;104130.56;5051780;28;20154;-83
2023/02/07 01:56:01;;;;;;;0.10;0.10;;;;;;;3.10;70.08;104128.72;5059111;28;20025;-82
2023/02/07 01:58:28;;;;;;;0.20;0.20;;;;;;;3.06;70.18;104129.34;5053198;28;20025;-82
2023/02/07 02:00:54;;;;;;;0.10;0.10;;;;;;;3.04;70.46;104136.19;5057822;28;20190;-82
2023/02/07 02:03:20;;;;;;;0.10;0.10;;;;;;;3.01;70.12;104134.28;5057136;28;20108;-82
2023/02/07 02:05:49;;;;;;;0.17;0.17;;;;;;;2.98;70.31;104133.19;5054955;28;20025;-80
2023/02/07 02:08:15;;;;;;;0.20;0.20;;;;;;;2.97;69.85;104137.53;5055164;28;20033;-81
2023/02/07 02:11:11;;;;;;;0.20;0.20;;;;;;;3.03;70.06;104137.03;5055409;28;20021;-83
2023/02/07 02:13:56;;;;;;;0.65;0.65;;;;;;;2.99;70.03;104129.75;5055775;28;20021;-83
2023/02/07 02:22:17;;;;;;;0.10;0.10;;;;;;;2.96;69.14;104129.59;5081542;28;20127;-82
2023/02/07 02:25:11;;;;;;;0.10;0.10;;;;;;;2.90;69.86;104125.75;5076475;28;21024;-81
2023/02/07 02:27:54;;;;;;;0.20;0.20;;;;;;;2.87;69.88;104120.31;5071986;28;20036;-81
2023/02/07 02:33:20;;;;;;;0.20;0.20;;;;;;;2.86;70.02;104128.97;5074859;27;1858818;-83
2023/02/07 02:38:37;;;;;;;0.17;0.17;;;;;;;2.78;69.61;104117.09;5105657;28;20370;-80
2023/02/07 02:41:13;;;;;;;0.10;0.10;;;;;;;2.78;69.74;104116.19;5092575;28;20029;-79
2023/02/07 02:46:33;;;;;;;0.10;0.10;;;;;;;2.75;69.80;104116.88;5116126;27;1167185;-83
2023/02/07 02:49:01;;;;;;;0.20;0.20;;;;;;;2.72;69.96;104121.94;5126817;28;20314;-82
2023/02/07 02:51:31;;;;;;;0.10;0.10;;;;;;;2.72;69.91;104129.78;5119868;28;20039;-82
2023/02/07 02:53:59;;;;;;;0.10;0.10;;;;;;;2.69;69.91;104124.34;5103523;28;20024;-83
2023/02/07 02:56:50;;;;;;;0.20;0.20;;;;;;;2.72;70.23;104114.09;5103000;28;20038;-83
2023/02/07 02:59:50;;;;;;;0.10;0.10;;;;;;;2.72;70.05;104111.47;5099826;28;20084;-83
2023/02/07 03:02:56;;;;;;;0.10;0.10;;;;;;;2.70;69.73;104110.44;5109840;28;20505;-84
2023/02/07 03:05:45;;;;;;;0.20;0.20;;;;;;;2.67;70.03;104105.94;5114516;28;20032;-81
2023/02/07 03:08:38;;;;;;;0.20;0.20;;;;;;;2.67;70.14;104107.66;5117583;28;20028;-81
2023/02/07 03:14:21;;;;;;;0.10;0.10;;;;;;;2.65;69.97;104101.41;4987385;28;20392;-82
2023/02/07 03:19:31;;;;;;;0.10;0.10;;;;;;;2.57;70.34;104109.66;5086394;27;20041;-81
2023/02/07 03:22:04;;;;;;;0.10;0.10;;;;;;;2.55;70.17;104113.88;5121208;28;20041;-79
2023/02/07 03:24:33;;;;;;;0.20;0.20;;;;;;;2.52;70.00;104105.81;5077662;28;20033;-80
2023/02/07 03:27:04;;;;;;;0.20;0.20;;;;;;;2.50;70.12;104103.91;5061872;28;20025;-82
2023/02/07 03:29:33;;;;;;;0.10;0.10;;;;;;;2.43;69.84;104100.88;5062382;28;20376;-82
2023/02/07 03:32:03;;;;;;;0.17;0.17;;;;;;;2.39;69.99;104092.72;5061894;28;20021;-82
2023/02/07 03:34:37;;;;;;;0.28;0.28;;;;;;;2.37;69.86;104095.25;5062849;28;20037;-81
2023/02/07 03:39:43;;;;;;;0.10;0.10;;;;;;;2.29;69.86;104090.31;5094477;27;20417;-83
2023/02/07 03:42:21;;;;;;;0.20;0.20;;;;;;;2.31;69.96;104088.72;5090192;28;20067;-83
2023/02/07 03:44:50;;;;;;;0.20;0.20;;;;;;;2.26;70.30;104094.53;5085499;28;20021;-83
2023/02/07 03:47:18;;;;;;;0.20;0.20;;;;;;;2.25;70.01;104100.56;5082338;28;20025;-82
2023/02/07 03:49:44;;;;;;;0.10;0.10;;;;;;;2.24;69.87;104092.59;5086072;28;20020;-82
2023/02/07 03:52:10;;;;;;;0.10;0.10;;;;;;;2.23;69.92;104089.09;5087289;28;20111;-82
2023/02/07 03:54:36;;;;;;;0.20;0.20;;;;;;;2.22;70.40;104092.50;5082355;28;20048;-83
2023/02/07 03:57:02;;;;;;;0.17;0.17;;;;;;;2.23;70.09;104096.94;5090510;28;20512;-82
2023/02/07 03:59:29;;;;;;;0.10;0.10;;;;;;;2.23;70.14;104096.94;5090901;28;20066;-83
2023/02/07 04:01:55;;;;;;;0.17;0.17;;;;;;;2.21;70.30;104095.03;5086393;28;20157;-83
2023/02/07 04:04:21;;;;;;;0.10;0.10;;;;;;;2.20;70.29;104098.44;5083812;28;20032;-83
2023/02/07 04:06:47;;;;;;;0.20;0.20;;;;;;;2.19;70.31;104094.91;5085945;28;20020;-83
2023/02/07 04:09:14;;;;;;;0.10;0.10;;;;;;;2.19;70.41;104099.25;5087736;28;20032;-84
2023/02/07 04:11:40;;;;;;;0.20;0.20;;;;;;;2.17;70.63;104095.63;5095855;28;20012;-80
2023/02/07 04:14:06;;;;;;;0.20;0.20;;;;;;;2.17;70.45;104100.84;5109459;28;20016;-79
2023/02/07 04:16:32;;;;;;;0.20;0.20;;;;;;;2.14;70.39;104096.31;5100102;28;20039;-80
2023/02/07 04:18:58;;;;;;;0.30;0.30;;;;;;;2.15;70.26;104092.91;5097341;28;20088;-81
2023/02/07 04:21:25;;;;;;;0.15;0.15;;;;;;;2.14;70.44;104096.31;5078451;28;20029;-81
2023/02/07 04:23:51;;;;;;;0.30;0.30;;;;;;;2.13;70.45;104098.84;5079021;28;20445;-81
2023/02/07 04:26:17;;;;;;;0.15;0.15;;;;;;;2.11;70.40;104096.13;5082833;28;20063;-82
2023/02/07 04:28:43;;;;;;;0.35;0.35;;;;;;;2.08;70.30;104095.91;5080181;28;20024;-82
2023/02/07 04:31:09;;;;;;;0.10;0.10;;;;;;;2.06;70.29;104097.53;5081300;28;20032;-81
2023/02/07 04:33:35;;;;;;;0.10;0.10;;;;;;;2.04;70.38;104091.28;5079734;28;20090;-81
2023/02/07 04:36:03;;;;;;;0.20;0.20;;;;;;;2.04;70.38;104086.03;5079682;28;20027;-83
2023/02/07 04:38:29;;;;;;;0.20;0.20;;;;;;;2.03;70.40;104086.84;5075174;28;20442;-83
2023/02/07 04:41:02;;;;;;;0.20;0.20;;;;;;;2.04;70.58;104086.03;5079041;28;20062;-81
2023/02/07 04:43:28;;;;;;;;;;;;;;;2.15;69.80;104085.06;5094772;28;20029;-81
2023/02/07 04:45:54;;;;;;;0.20;0.20;;;;;;;2.03;70.17;104084.22;5092568;28;19912;-84
2023/02/07 04:48:20;;;;;;;0.17;0.17;;;;;;;2.02;70.19;104090.25;5080301;28;20024;-83
2023/02/07 04:50:47;;;;;;;0.20;0.20;;;;;;;2.01;70.08;104073.66;5071455;28;20041;-83
2023/02/07 04:53:13;;;;;;;0.20;0.20;;;;;;;2.02;70.17;104075.50;5068329;28;20029;-83
2023/02/07 04:55:39;;;;;;;0.10;0.10;;;;;;;2.02;70.64;104077.19;5065883;28;20081;-81
2023/02/07 04:58:06;;;;;;;0.20;0.20;;;;;;;2.01;70.23;104078.91;5068423;28;20033;-82
2023/02/07 05:00:33;;;;;;;0.20;0.20;;;;;;;2.00;70.24;104086.66;5066907;28;20044;-83
2023/02/07 05:03:00;;;;;;;0.20;0.20;;;;;;;1.99;70.48;104092.69;5062473;28;20052;-83
2023/02/07 05:05:26;;;;;;;0.60;0.60;;;;;;;1.98;70.47;104085.63;5068771;28;20036;-83
2023/02/07 05:07:52;;;;;;;0.73;0.73;;;;;;;1.97;70.70;104083.81;5070812;28;20079;-83
2023/02/07 05:10:18;;;;;;;0.30;0.30;;;;;;;1.92;70.80;104092.25;5072270;28;20044;-84
2023/02/07 05:12:44;;;;;;;0.20;0.20;;;;;;;1.90;70.92;104086.00;5065718;28;20062;-82
2023/02/07 05:15:10;;;;;;;0.20;0.20;;;;;;;1.90;70.63;104090.34;5070606;28;20418;-83
2023/02/07 05:17:37;;;;;;;0.20;0.20;;;;;;;1.90;70.70;104080.78;5070238;28;20025;-83
2023/02/07 05:20:05;;;;;;;0.20;0.20;;;;;;;1.89;70.69;104081.56;5067363;28;20032;-82
2023/02/07 05:22:31;;;;;;;0.73;0.73;;;;;;;1.87;70.81;104091.03;5068604;28;20044;-83
2023/02/07 05:24:57;;;;;;;0.20;0.20;;;;;;;1.83;70.99;104081.16;5067717;28;20039;-82
2023/02/07 05:27:23;;;;;;;0.10;0.10;;;;;;;1.83;70.91;104089.00;5076468;28;20032;-83
2023/02/07 05:29:49;;;;;;;0.13;0.13;;;;;;;1.81;70.87;104095.84;5075154;28;20081;-83
2023/02/07 05:35:02;;;;;;;0.50;0.50;;;;;;;1.81;70.71;104090.63;5069369;28;20111;-83
2023/02/07 05:37:29;;;;;;;0.20;0.20;;;;;;;1.80;71.03;104095.75;5066525;28;20035;-82
2023/02/07 05:39:55;;;;;;;0.10;0.10;;;;;;;1.78;71.28;104098.25;5075632;28;20025;-82
2023/02/07 05:42:21;;;;;;;0.20;0.20;;;;;;;1.76;71.06;104092.00;5089412;28;20059;-80
2023/02/07 05:44:47;;;;;;;0.20;0.20;;;;;;;1.75;71.12;104091.09;5095457;28;20036;-80
2023/02/07 05:47:13;;;;;;;0.10;0.10;;;;;;;1.75;70.75;104090.19;5081333;28;20103;-83
2023/02/07 05:49:39;;;;;;;0.10;0.10;;;;;;;1.73;70.68;104091.78;5088714;28;20017;-80
2023/02/07 05:52:05;;;;;;;0.20;0.20;;;;;;;1.70;70.78;104096.81;5099240;28;20059;-79
2023/02/07 05:54:31;;;;;;;0.10;0.10;;;;;;;1.68;70.82;104101.03;5098457;28;20033;-81
2023/02/07 05:56:57;;;;;;;0.10;0.10;;;;;;;1.67;70.85;104101.81;5071768;28;20510;-82
2023/02/07 05:59:23;;;;;;;2.28;1.27;;;;;;;1.65;70.98;104093.00;5070757;28;20057;-84
2023/02/07 06:01:49;;;;;;;1.00;1.00;;;;;;;1.64;70.92;104092.06;5073058;28;20050;-81
2023/02/07 06:04:15;;;;;;;0.15;0.15;;;;;;;1.61;70.46;104094.47;5071359;28;20041;-83
2023/02/07 06:06:41;;;;;;;0.20;0.20;;;;;;;1.57;70.66;104090.75;5072472;28;20524;-83
2023/02/07 06:09:07;;;;;;;0.10;0.10;;;;;;;1.56;70.50;104091.53;5076290;28;20043;-82
2023/02/07 06:11:34;;;;;;;0.35;0.35;;;;;;;1.55;70.87;104094.94;5072594;28;20033;-82
2023/02/07 06:14:00;;;;;;;0.20;0.20;;;;;;;1.53;70.79;104093.91;5069718;28;20032;-83
2023/02/07 06:16:26;;;;;;;0.20;0.20;;;;;;;1.48;70.74;104099.63;5074969;28;20325;-83
2023/02/07 06:18:52;;;;;;;0.10;0.10;;;;;;;1.46;70.62;104102.16;5076017;28;20092;-83
2023/02/07 06:21:18;;;;;;;0.10;0.10;;;;;;;1.44;70.69;104108.97;5080927;28;20063;-84
2023/02/07 06:23:45;;;;;;;0.52;0.52;;;;;;;1.41;70.44;104106.16;5073696;28;20037;-81
2023/02/07 06:26:11;;;;;;;0.10;0.10;;;;;;;1.37;70.52;104106.72;5062698;28;20045;-84
2023/02/07 06:28:37;;;;;;;0.10;0.10;;;;;;;1.35;70.65;104108.34;5065735;28;20028;-84
2023/02/07 06:31:04;;;;;;;0.20;0.20;;;;;;;1.32;70.83;104114.25;5072483;28;20463;-84
2023/02/07 06:33:30;;;;;;;0.20;0.20;;;;;;;1.34;70.77;104116.97;5070432;28;20078;-83
2023/02/07 06:35:56;;;;;;;0.20;0.20;;;;;;;1.35;70.98;104118.78;5074220;28;20053;-84
2023/02/07 06:38:22;;;;;;;0.20;0.20;;;;;;;1.35;70.63;104114.44;5072072;28;20055;-83
2023/02/07 06:40:48;;;;;;;0.10;0.10;;;;;;;1.35;71.13;104118.78;5075436;28;20060;-82
2023/02/07 06:43:15;;;;;;;0.20;0.20;;;;;;;1.37;70.88;104120.69;5077518;28;20020;-84
2023/02/07 06:45:41;;;;;;;0.20;0.20;;;;;;;1.40;71.23;104114.78;5065622;28;20582;-82
2023/02/07 06:48:08;;;;;;;0.20;0.20;;;;;;;1.41;71.13;104120.09;5067855;28;20027;-82
2023/02/07 06:50:34;;;;;;;1.17;0.68;;;;;;;1.41;71.26;104124.44;5062114;28;20040;-82
2023/02/07 06:53:00;;;;;;;0.20;0.20;;;;;;;1.39;71.31;104120.81;5063541;28;20033;-82
2023/02/07 06:55:29;;;;;;;0.20;0.20;;;;;;;1.40;71.32;104122.63;5059704;28;20032;-80
2023/02/07 06:57:55;;;;;;;0.20;0.20;;;;;;;1.38;71.41;104129.44;5063354;28;20085;-83
2023/02/07 07:00:25;;;;;;;0.85;0.85;;;;;;;1.39;71.30;104128.63;5061369;28;20045;-83
2023/02/07 07:02:51;;;;;;;0.40;0.40;;;;;;;1.37;71.63;104132.84;5061165;28;20029;-82
2023/02/07 07:05:18;;;;;;;0.20;0.20;;;;;;;1.39;71.32;104136.47;5063066;28;20024;-82
2023/02/07 07:07:44;;;;;;;1.00;1.00;;;;;;;1.39;71.14;104136.47;5060571;28;20492;-83
2023/02/07 07:10:11;;;;;;;0.85;0.85;;;;;;;1.39;71.43;104136.47;5060747;28;20023;-83
2023/02/07 07:12:37;;;;;;;0.20;0.20;;;;;;;1.39;71.35;104139.97;5059986;28;20044;-83
2023/02/07 07:15:04;;;;;;;0.10;0.10;;;;;;;1.38;71.60;104145.13;5063883;28;20045;-83
2023/02/07 07:17:30;;;;;;;0.75;0.75;;;;;;;1.35;71.92;104139.69;5066146;28;20039;-83
2023/02/07 07:19:57;;;;;;;3.03;1.20;;;;;;;1.38;71.36;104137.28;5065115;28;20064;-83
2023/02/07 07:22:24;;;;;;;0.20;0.20;;;;;;;1.40;71.65;104151.38;5068579;28;20037;-81
2023/02/07 07:24:50;;;;;;;0.10;0.10;;;;;;;1.42;71.82;104141.91;5079315;28;20021;-80
2023/02/07 07:27:17;;;;;;;0.13;0.13;;;;;;;1.45;71.68;104136.91;5081387;28;20076;-81
2023/02/07 07:29:43;;;;;;;1.08;1.08;;;;;;;1.50;72.02;104145.97;5073254;28;20109;-81
2023/02/07 07:32:12;;;;;;;0.30;0.30;;;;;;;1.55;71.82;104149.81;5064830;28;20071;-82
2023/02/07 07:34:38;;;;;;;0.85;0.85;;;;;;;1.62;72.02;104156.41;5056131;28;20052;-82
2023/02/07 07:37:05;;;;;;;0.20;0.20;;;;;;;1.71;72.04;104166.59;5056394;28;20040;-84
2023/02/07 07:39:31;;;;;;;0.20;0.20;;;;;;;1.80;71.99;104156.78;5051331;28;20045;-81
2023/02/07 07:41:57;;;;;;;0.10;0.10;;;;;;;1.89;72.20;104162.63;5053139;28;20029;-83
2023/02/07 07:44:25;;;;;;;0.38;0.38;;;;;;;1.99;72.20;104163.28;5060402;28;20040;-82
2023/02/07 07:46:51;;;;;;;0.20;0.20;;;;;;;2.04;72.41;104160.16;5057601;28;20104;-81
2023/02/07 07:49:17;;;;;;;1.05;1.05;;;;;;;2.10;72.11;104157.09;5056001;28;20045;-83
2023/02/07 07:51:45;;;;;;;0.10;0.10;;;;;;;2.09;72.05;104160.50;5063423;28;20096;-82
2023/02/07 07:54:11;;;;;;;0.20;0.20;;;;;;;2.13;71.97;104162.53;5081732;28;20021;-83
2023/02/07 07:56:37;;;;;;;0.10;0.10;;;;;;;2.10;71.69;104167.53;5067293;28;20037;-83
2023/02/07 07:59:04;;;;;;;0.10;0.10;;;;;;;2.09;71.59;104165.72;5062452;28;20051;-83
2023/02/07 08:01:30;;;;;;;0.65;0.65;;;;;;;2.13;71.53;104167.78;5061450;28;20112;-83
2023/02/07 08:03:56;;;;;;;0.10;0.10;;;;;;;2.14;71.39;104168.66;5060861;28;20032;-84
2023/02/07 08:06:22;;;;;;;2.90;1.17;;;;;;;2.19;71.60;104181.25;5057955;28;20032;-83
2023/02/07 08:08:48;;;;;;;0.20;0.20;;;;;;;2.24;71.59;104182.50;5057684;28;20143;-84
2023/02/07 08:11:14;;;;;;;0.40;0.40;;;;;;;2.28;71.80;104174.84;5056114;28;20036;-83
2023/02/07 08:13:40;;;;;;;0.20;0.20;;;;;;;2.32;71.50;104177.78;5056028;28;20025;-82
2023/02/07 08:16:07;;;;;;;0.45;0.45;;;;;;;2.29;71.12;104179.28;5058534;28;20036;-82
2023/02/07 08:18:34;;;;;;;0.80;0.80;;;;;;;2.32;71.31;104179.47;5059463;28;20025;-83
2023/02/07 08:21:00;;;;;;;0.50;0.50;;;;;;;2.34;71.46;104172.63;5059076;28;20021;-83
2023/02/07 08:23:26;;;;;;;0.17;0.17;;;;;;;2.41;71.35;104178.38;5060172;28;20021;-84
2023/02/07 08:25:53;;;;;;;0.10;0.10;;;;;;;2.43;71.07;104178.50;5059146;28;20040;-82
2023/02/07 08:28:19;;;;;;;0.20;0.20;;;;;;;2.46;70.73;104178.69;5062939;28;20480;-83
2023/02/07 08:30:46;;;;;;;0.10;0.10;;;;;;;2.46;70.96;104168.22;5061686;28;20090;-83
2023/02/07 08:33:14;;;;;;;0.88;0.88;;;;;;;2.45;70.49;104176.00;5059697;28;20021;-83
2023/02/07 08:35:40;;;;;;;0.20;0.20;;;;;;;2.47;70.63;104163.88;5065763;28;20044;-83
2023/02/07 08:38:07;;;;;;;0.20;0.20;;;;;;;2.46;70.38;104173.47;5070207;28;20021;-83
2023/02/07 08:40:33;;;;;;;0.20;0.20;;;;;;;2.51;70.82;104174.69;5065810;28;20092;-84
2023/02/07 08:42:59;;;;;;;0.20;0.20;;;;;;;2.50;70.21;104174.59;5063675;28;20104;-84
2023/02/07 08:45:26;;;;;;;0.10;0.10;;;;;;;2.46;70.03;104176.09;5069383;28;20430;-83
2023/02/07 08:47:52;;;;;;;0.25;0.25;;;;;;;2.45;70.16;104174.28;5074119;28;20032;-83
2023/02/07 08:50:19;;;;;;;0.20;0.20;;;;;;;2.51;70.26;104177.31;5081585;28;20074;-84
2023/02/07 08:52:45;;;;;;;0.10;0.10;;;;;;;2.56;70.46;104186.38;5077995;28;20033;-83
2023/02/07 08:55:11;;;;;;;0.88;0.88;;;;;;;2.63;70.37;104182.47;5071646;28;20031;-83
2023/02/07 08:57:38;;;;;;;0.20;0.20;;;;;;;2.67;70.63;104188.81;5071121;28;20072;-83
2023/02/07 09:00:06;;;;;;;0.10;0.10;;;;;;;2.70;70.23;104189.91;5077477;28;20029;-83
2023/02/07 09:02:32;;;;;;;0.20;0.20;;;;;;;2.74;69.65;104196.25;5095277;28;20233;-82
2023/02/07 09:04:58;;;;;;;4.95;0.90;;;;;;;2.76;69.77;104194.66;5092107;28;20039;-81
2023/02/07 09:07:24;;;;;;;0.20;0.20;;;;;;;2.80;69.45;104191.41;5080374;28;20123;-83
2023/02/07 09:09:50;;;;;;;1.90;1.48;;;;;;;2.87;69.81;104196.25;5065699;28;20032;-83
2023/02/07 09:12:16;;;;;;;0.28;0.28;;;;;;;2.86;68.97;104193.56;5064907;28;20040;-81
2023/02/07 09:14:43;;;;;;;0.30;0.30;;;;;;;2.86;69.07;104191.81;5064561;28;20032;-84
2023/02/07 09:17:09;;;;;;;0.22;0.22;;;;;;;2.86;69.22;104186.59;5060213;28;20036;-83
2023/02/07 09:19:36;;;;;;;0.10;0.10;;;;;;;2.87;69.15;104184.91;5061906;28;20036;-83
2023/02/07 09:22:03;;;;;;;0.20;0.20;;;;;;;2.88;68.92;104179.75;5061325;28;20104;-82
2023/02/07 09:24:29;;;;;;;0.22;0.22;;;;;;;2.90;68.53;104186.00;5071009;28;20029;-83
2023/02/07 09:26:55;;;;;;;2.08;1.13;;;;;;;2.85;68.29;104190.00;5069953;28;20013;-81
2023/02/07 09:29:21;;;;;;;0.43;0.43;;;;;;;2.77;68.15;104183.38;5080797;28;20083;-83
2023/02/07 09:31:47;;;;;;;0.20;0.20;;;;;;;2.74;68.21;104177.91;5087023;28;20036;-83
2023/02/07 09:34:13;;;;;;;0.20;0.20;;;;;;;2.71;68.79;104181.25;5071082;28;20525;-83
2023/02/07 09:36:39;;;;;;;0.20;0.20;;;;;;;2.72;68.74;104176.94;5066695;28;20081;-82
2023/02/07 09:39:06;;;;;;;0.10;0.10;;;;;;;2.77;68.62;104187.69;5072326;28;20058;-82
2023/02/07 09:41:59;;;;;;;0.88;0.88;;;;;;;2.86;68.62;104178.72;5067686;28;20040;-83
2023/02/07 09:44:51;;;;;;;1.20;1.13;;;;;;;2.86;68.39;104176.13;5062259;28;20089;-84
2023/02/07 09:47:22;;;;;;;0.20;0.20;;;;;;;2.89;68.58;104178.94;5063701;28;20069;-81
2023/02/07 09:52:48;;;;;;;0.10;0.10;;;;;;;3.33;69.41;104184.34;5097120;27;20431;-82
2023/02/07 09:55:21;;;;;;;0.20;0.20;;;;;;;3.24;68.71;104180.31;5098428;28;20119;-80
2023/02/07 09:57:51;;;;;;;0.90;0.90;;;;;;;3.23;68.74;104180.22;5097971;28;20028;-82
2023/02/07 10:00:23;;;;;;;2.10;1.98;;;;;;;3.20;67.93;104194.03;5098256;28;20024;-81
2023/02/07 10:03:13;;;;;;;0.10;0.10;;;;;;;3.21;68.22;104198.44;5096732;28;20032;-81
2023/02/07 10:05:44;;;;;;;0.10;0.10;;;;;;;3.23;68.40;104185.47;5095057;28;20088;-81
2023/02/07 10:08:15;;;;;;;0.20;0.20;;;;;;;3.28;68.06;104185.75;5093823;28;20024;-82
2023/02/07 10:10:47;;;;;;;0.10;0.10;;;;;;;3.24;67.76;104196.03;5096730;28;20099;-82
2023/02/07 10:13:37;;;;;;;0.40;0.40;;;;;;;3.22;67.68;104192.41;5089715;28;20036;-81
2023/02/07 10:18:49;;;;;;;0.28;0.28;;;;;;;3.24;67.79;104200.41;5101252;27;1348707;-81
2023/02/07 10:29:53;;;;;;;0.10;0.10;;;;;;;3.59;68.28;104199.13;5121666;27;1185237;-80
2023/02/07 10:35:00;;;;;;;0.23;0.23;;;;;;;3.51;67.01;104209.09;5115235;27;1170553;-80
2023/02/07 10:37:28;;;;;;;;;;;;;;;3.65;67.50;104209.06;5138855;28;20023;-81
2023/02/07 10:40:11;;;;;;;0.20;0.20;;;;;;;3.74;68.07;104204.41;5143328;27;19907;-79
2023/02/07 10:42:40;;;;;;;0.10;0.10;;;;;;;3.81;67.16;104201.34;5123506;28;20046;-81
2023/02/07 10:45:11;;;;;;;0.17;0.17;;;;;;;3.79;66.83;104200.34;5123686;28;20045;-81
2023/02/07 10:47:40;;;;;;;0.20;0.20;;;;;;;3.75;66.95;104194.81;5121186;28;20032;-81
2023/02/07 10:50:12;;;;;;;0.10;0.10;;;;;;;3.80;67.08;104194.31;5124535;28;20031;-80
2023/02/07 10:52:44;;;;;;;0.55;0.55;;;;;;;3.87;67.90;104195.56;5121500;28;20050;-80
2023/02/07 10:55:12;;;;;;;0.20;0.20;;;;;;;3.92;67.46;104193.25;5124622;28;20107;-80
2023/02/07 10:57:39;;;;;;;0.40;0.40;;;;;;;3.94;66.97;104186.34;5123341;28;20053;-80
2023/02/07 11:02:50;;;;;;;0.15;0.15;;;;;;;4.18;67.41;104193.09;5121334;27;20399;-80
2023/02/07 11:10:52;;;;;;;0.20;0.20;;;;;;;3.99;66.66;104192.81;5101134;27;1876952;-81
2023/02/07 11:13:22;;;;;;;0.10;0.10;;;;;;;4.15;67.61;104187.69;5165255;27;20026;-82
2023/02/07 11:15:54;;;;;;;0.47;0.47;;;;;;;4.36;66.89;104188.06;5158851;27;20483;-79
2023/02/07 11:18:44;;;;;;;0.30;0.30;;;;;;;4.49;65.89;104192.31;5161468;27;20051;-80
2023/02/07 11:24:16;;;;;;;0.60;0.60;;;;;;;4.64;66.07;104175.66;5109279;27;1173035;-81
2023/02/07 11:27:04;;;;;;;0.10;0.10;;;;;;;4.70;65.20;104178.66;5118639;28;20281;-79
2023/02/07 11:29:36;;;;;;;0.10;0.10;;;;;;;4.67;65.39;104173.19;5120910;28;20016;-80
2023/02/07 11:32:03;;;;;;;0.22;0.22;;;;;;;4.66;65.47;104171.38;5146677;27;20040;-79
2023/02/07 11:34:51;;;;;;;0.52;0.47;;;;;;;4.70;65.61;104178.66;5137444;28;20032;-79
2023/02/07 11:40:13;;;;;;;0.10;0.10;;;;;;;4.52;65.49;104174.13;5119400;27;20392;-80
2023/02/07 11:42:39;;;;;;;0.32;0.32;;;;;;;4.62;65.63;104178.22;5119024;28;20047;-80
2023/02/07 11:45:14;;;;;;;0.43;0.43;;;;;;;4.78;65.79;104165.97;5122501;28;20047;-81
2023/02/07 11:47:43;;;;;;;0.22;0.22;;;;;;;4.85;65.48;104168.13;5123517;28;20051;-80
2023/02/07 11:50:19;;;;;;;0.40;0.40;;;;;;;4.93;65.33;104163.31;5114167;28;20028;-80
2023/02/07 11:52:51;;;;;;;0.25;0.25;;;;;;;5.06;65.43;104157.00;5121938;28;20040;-80
2023/02/07 11:55:24;;;;;;;0.50;0.50;;;;;;;5.12;65.13;104152.09;5124301;28;20027;-80
2023/02/07 11:57:53;;;;;;;;;;;;;;;5.24;64.45;104152.78;5120785;28;20034;-81
2023/02/07 12:00:25;;;;;;;0.52;0.52;;;;;;;5.09;64.42;104138.78;5117375;28;19908;-81
2023/02/07 12:03:04;;;;;;;0.93;0.80;;;;;;;5.04;64.69;104143.78;5104565;28;20050;-80
2023/02/07 12:05:37;;;;;;;0.20;0.20;;;;;;;4.97;64.86;104146.88;5116910;28;20028;-80
2023/02/07 12:08:15;;;;;;;0.40;0.40;;;;;;;5.01;65.19;104138.38;5122653;28;20035;-81
2023/02/07 12:10:47;;;;;;;1.00;1.00;;;;;;;4.96;64.51;104131.91;5120049;28;20662;-80
2023/02/07 12:16:04;;;;;;;0.13;0.13;;;;;;;4.85;64.32;104137.50;5082904;28;20397;-80
2023/02/07 12:18:36;;;;;;;0.20;0.20;;;;;;;4.92;65.01;104135.22;5079440;28;20037;-80
2023/02/07 12:21:26;;;;;;;3.58;1.13;;;;;;;5.06;65.13;104144.78;5069331;28;20032;-81
2023/02/07 12:26:43;;;;;;;0.20;0.20;;;;;;;5.17;64.44;104129.59;5125352;27;20398;-81
2023/02/07 12:32:25;;;;;;;0.10;0.10;;;;;;;5.22;64.43;104132.47;5124100;27;20399;-81
2023/02/07 12:35:23;;;;;;;0.47;0.47;;;;;;;5.18;64.42;104131.41;5107780;28;20040;-81
2023/02/07 12:41:11;;;;;;;0.25;0.25;;;;;;;5.14;64.66;104134.69;5128875;27;20402;-82
2023/02/07 12:43:43;;;;;;;0.22;0.22;;;;;;;5.19;64.67;104134.13;5112204;28;20067;-82
2023/02/07 12:46:34;;;;;;;0.25;0.25;;;;;;;5.33;64.94;104123.47;5118638;28;20035;-82
2023/02/07 12:54:46;;;;;;;0.10;0.10;;;;;;;5.69;64.00;104110.47;5083255;28;20395;-81
2023/02/07 13:13:51;;;;;;;0.10;0.10;;;;;;;6.25;62.24;104108.13;5074473;28;20135;-82